createdAt,value
2022-11-16T00:01:46.716Z,100.00
2022-11-16T00:04:13.732Z,100.00
2022-11-16T00:06:41.305Z,100.00
2022-11-16T00:09:23.503Z,100.00
2022-11-16T00:12:02.118Z,100.00
2022-11-16T00:14:33.641Z,100.00
2022-11-16T00:17:01.777Z,100.00
2022-11-16T00:19:29.673Z,100.00
2022-11-16T00:21:56.790Z,100.00
2022-11-16T00:24:24.782Z,100.00
2022-11-16T00:26:55.220Z,100.00
2022-11-16T00:29:26.138Z,100.00
2022-11-16T00:31:54.949Z,100.00
2022-11-16T00:34:23.734Z,100.00
2022-11-16T00:36:51.465Z,100.00
2022-11-16T00:39:19.333Z,100.00
2022-11-16T00:41:48.004Z,100.00
2022-11-16T00:44:15.992Z,100.00
2022-11-16T00:46:43.326Z,100.00
2022-11-16T00:49:10.948Z,100.00
2022-11-16T00:51:38.751Z,100.00
2022-11-16T00:54:09.096Z,100.00
2022-11-16T00:56:38.041Z,100.00
2022-11-16T00:59:06.553Z,100.00
2022-11-16T01:01:34.075Z,100.00
2022-11-16T01:04:01.266Z,100.00
2022-11-16T01:06:28.403Z,100.00
2022-11-16T01:08:55.662Z,100.00
2022-11-16T01:11:42.957Z,100.00
2022-11-16T01:14:10.977Z,100.00
2022-11-16T01:16:37.988Z,100.00
2022-11-16T01:19:05.819Z,100.00
2022-11-16T01:21:34.473Z,100.00
2022-11-16T01:24:01.741Z,100.00
2022-11-16T01:26:29.146Z,100.00
2022-11-16T01:28:59.050Z,100.00
2022-11-16T01:31:28.866Z,100.00
2022-11-16T01:33:55.987Z,100.00
2022-11-16T01:36:26.815Z,100.00
2022-11-16T01:38:56.655Z,100.00
2022-11-16T01:41:27.319Z,100.00
2022-11-16T01:44:27.058Z,100.00
2022-11-16T01:47:08.683Z,100.00
2022-11-16T01:49:48.617Z,100.00
2022-11-16T01:52:25.241Z,100.00
2022-11-16T01:54:55.343Z,100.00
2022-11-16T01:57:32.794Z,100.00
2022-11-16T02:00:09.613Z,100.00
2022-11-16T02:02:57.303Z,100.00
2022-11-16T02:06:25.834Z,100.00
2022-11-16T02:09:36.438Z,100.00
2022-11-16T02:12:50.956Z,100.00
2022-11-16T02:15:48.007Z,100.00
2022-11-16T02:18:50.433Z,100.00
2022-11-16T02:21:41.102Z,100.00
2022-11-16T02:24:43.719Z,100.00
2022-11-16T02:27:28.782Z,100.00
2022-11-16T02:29:57.312Z,100.00
2022-11-16T02:33:09.966Z,100.00
2022-11-16T02:35:56.173Z,100.00
2022-11-16T02:38:30.995Z,100.00
2022-11-16T02:41:16.314Z,100.00
2022-11-16T02:43:57.031Z,100.00
2022-11-16T02:46:36.750Z,100.00
2022-11-16T02:49:19.404Z,100.00
2022-11-16T02:51:48.337Z,100.00
2022-11-16T02:54:21.116Z,100.00
2022-11-16T02:57:41.738Z,100.00
2022-11-16T03:00:54.726Z,100.00
2022-11-16T03:03:38.229Z,100.00
2022-11-16T03:06:23.075Z,100.00
2022-11-16T03:09:18.670Z,100.00
2022-11-16T03:11:59.287Z,100.00
2022-11-16T03:14:54.055Z,100.00
2022-11-16T03:17:44.427Z,100.00
2022-11-16T03:20:30.933Z,100.00
2022-11-16T03:23:04.990Z,100.00
2022-11-16T03:25:45.130Z,100.00
2022-11-16T03:28:20.270Z,100.00
2022-11-16T03:30:57.778Z,100.00
2022-11-16T03:33:34.565Z,100.00
2022-11-16T03:36:36.385Z,100.00
2022-11-16T03:39:12.315Z,100.00
2022-11-16T03:41:44.241Z,100.00
2022-11-16T03:44:15.157Z,100.00
2022-11-16T03:46:45.309Z,100.00
2022-11-16T03:49:14.053Z,100.00
2022-11-16T03:51:42.730Z,100.00
2022-11-16T03:54:10.031Z,100.00
2022-11-16T03:56:39.825Z,100.00
2022-11-16T03:59:06.925Z,100.00
2022-11-16T04:01:34.955Z,100.00
2022-11-16T04:04:02.640Z,100.00
2022-11-16T04:06:48.456Z,100.00
2022-11-16T04:09:34.270Z,100.00
2022-11-16T04:12:23.255Z,100.00
2022-11-16T04:15:14.211Z,100.00
2022-11-16T04:18:00.182Z,100.00
2022-11-16T04:20:45.846Z,100.00
2022-11-16T04:23:34.840Z,100.00
2022-11-16T04:26:08.238Z,100.00
2022-11-16T04:28:37.396Z,100.00
2022-11-16T04:31:24.612Z,100.00
2022-11-16T04:34:24.501Z,100.00
2022-11-16T04:37:13.693Z,100.00
2022-11-16T04:39:42.354Z,100.00
2022-11-16T04:42:19.958Z,100.00
2022-11-16T04:45:09.827Z,100.00
2022-11-16T04:47:44.203Z,100.00
2022-11-16T04:50:12.552Z,100.00
2022-11-16T04:52:41.020Z,100.00
2022-11-16T04:55:12.226Z,100.00
2022-11-16T04:57:40.137Z,100.00
2022-11-16T05:00:09.354Z,100.00
2022-11-16T05:02:39.087Z,100.00
2022-11-16T05:05:09.317Z,100.00
2022-11-16T05:07:38.532Z,100.00
2022-11-16T05:10:13.118Z,100.00
2022-11-16T05:12:41.159Z,100.00
2022-11-16T05:15:12.154Z,100.00
2022-11-16T05:17:39.800Z,100.00
2022-11-16T05:20:31.055Z,100.00
2022-11-16T05:23:04.510Z,100.00
2022-11-16T05:25:39.614Z,100.00
2022-11-16T05:28:11.193Z,100.00
2022-11-16T05:30:45.058Z,100.00
2022-11-16T05:33:16.432Z,100.00
2022-11-16T05:35:45.408Z,100.00
2022-11-16T05:38:16.294Z,100.00
2022-11-16T05:40:47.878Z,100.00
2022-11-16T05:43:15.390Z,100.00
2022-11-16T05:45:54.394Z,100.00
2022-11-16T05:48:22.458Z,100.00
2022-11-16T05:50:49.598Z,100.00
2022-11-16T05:53:24.920Z,100.00
2022-11-16T05:55:52.526Z,100.00
2022-11-16T05:58:21.132Z,100.00
2022-11-16T06:00:51.048Z,100.00
2022-11-16T06:03:19.605Z,100.00
2022-11-16T06:05:46.759Z,100.00
2022-11-16T06:08:16.571Z,99.73
2022-11-16T06:10:43.639Z,99.54
2022-11-16T06:13:10.799Z,99.14
2022-11-16T06:15:40.525Z,98.87
2022-11-16T06:18:09.303Z,98.81
2022-11-16T06:20:39.532Z,98.83
2022-11-16T06:23:07.529Z,98.69
2022-11-16T06:25:39.656Z,98.52
2022-11-16T06:28:08.373Z,98.64
2022-11-16T06:30:40.162Z,98.75
2022-11-16T06:33:08.654Z,98.79
2022-11-16T06:35:38.161Z,98.88
2022-11-16T06:38:05.261Z,98.91
2022-11-16T06:40:33.955Z,99.27
2022-11-16T06:43:02.951Z,99.37
2022-11-16T06:45:30.162Z,99.51
2022-11-16T06:48:00.138Z,99.64
2022-11-16T06:50:30.387Z,99.77
2022-11-16T06:53:00.804Z,99.90
2022-11-16T06:55:29.390Z,99.96
2022-11-16T06:57:56.386Z,100.00
2022-11-16T07:00:23.555Z,100.00
2022-11-16T07:02:51.028Z,100.00
2022-11-16T07:05:19.753Z,100.00
2022-11-16T07:07:47.649Z,100.00
2022-11-16T07:10:14.789Z,100.00
2022-11-16T07:12:43.077Z,100.00
2022-11-16T07:15:11.175Z,100.00
2022-11-16T07:17:42.418Z,100.00
2022-11-16T07:20:12.016Z,100.00
2022-11-16T07:22:41.461Z,100.00
2022-11-16T07:25:12.702Z,100.00
2022-11-16T07:27:39.799Z,100.00
2022-11-16T07:30:07.874Z,100.00
2022-11-16T07:32:47.002Z,100.00
2022-11-16T07:35:20.701Z,100.00
2022-11-16T07:37:47.709Z,100.00
2022-11-16T07:40:16.186Z,100.00
2022-11-16T07:42:45.751Z,100.00
2022-11-16T07:45:26.595Z,100.00
2022-11-16T07:47:58.438Z,100.00
2022-11-16T07:50:48.594Z,100.00
2022-11-16T07:53:16.608Z,100.00
2022-11-16T07:55:43.823Z,100.00
2022-11-16T07:58:10.924Z,100.00
2022-11-16T08:00:39.031Z,100.00
2022-11-16T08:03:14.949Z,100.00
2022-11-16T08:05:44.473Z,100.00
2022-11-16T08:08:13.178Z,100.00
2022-11-16T08:10:41.865Z,100.00
2022-11-16T08:13:08.813Z,100.00
2022-11-16T08:15:36.866Z,100.00
2022-11-16T08:18:06.713Z,100.00
2022-11-16T08:20:34.896Z,100.00
2022-11-16T08:23:02.282Z,100.00
2022-11-16T08:25:33.286Z,100.00
2022-11-16T08:28:01.491Z,100.00
2022-11-16T08:30:29.534Z,100.00
2022-11-16T08:32:56.786Z,100.00
2022-11-16T08:35:23.789Z,100.00
2022-11-16T08:37:50.852Z,100.00
2022-11-16T08:40:18.531Z,100.00
2022-11-16T08:42:47.158Z,100.00
2022-11-16T08:45:15.347Z,100.00
2022-11-16T08:47:42.659Z,100.00
2022-11-16T08:50:10.066Z,100.00
2022-11-16T08:52:38.745Z,100.00
2022-11-16T08:55:06.689Z,100.00
2022-11-16T08:57:33.993Z,99.62
2022-11-16T09:00:07.617Z,99.55
2022-11-16T09:02:34.643Z,99.45
2022-11-16T09:05:01.734Z,99.12
2022-11-16T09:07:28.949Z,98.95
2022-11-16T09:09:55.954Z,98.69
2022-11-16T09:12:22.942Z,98.58
2022-11-16T09:14:49.983Z,98.49
2022-11-16T09:17:21.860Z,98.23
2022-11-16T09:19:50.255Z,97.55
2022-11-16T09:22:17.269Z,97.29
2022-11-16T09:24:44.188Z,97.28
2022-11-16T09:27:13.234Z,96.81
2022-11-16T09:29:40.278Z,96.49
2022-11-16T09:32:07.299Z,96.15
2022-11-16T09:34:35.340Z,96.05
2022-11-16T09:37:02.850Z,95.56
2022-11-16T09:39:32.464Z,95.30
2022-11-16T09:42:27.390Z,95.23
2022-11-16T09:45:18.839Z,95.15
2022-11-16T09:48:02.232Z,94.85
2022-11-16T09:50:43.102Z,94.45
2022-11-16T09:53:23.490Z,94.07
2022-11-16T09:55:54.582Z,93.24
2022-11-16T09:58:34.882Z,92.44
2022-11-16T10:01:18.436Z,92.12
2022-11-16T10:03:51.307Z,91.90
2022-11-16T10:06:28.804Z,92.09
2022-11-16T10:08:57.021Z,92.38
2022-11-16T10:11:52.757Z,92.21
2022-11-16T10:14:44.466Z,91.28
2022-11-16T10:18:06.097Z,91.11
2022-11-16T10:21:03.735Z,91.14
2022-11-16T10:24:16.131Z,90.58
2022-11-16T10:27:08.814Z,90.10
2022-11-16T10:30:01.637Z,89.83
2022-11-16T10:32:38.729Z,88.63
2022-11-16T10:35:32.115Z,88.65
2022-11-16T10:38:02.649Z,87.97
2022-11-16T10:40:37.590Z,87.28
2022-11-16T10:43:15.247Z,86.89
2022-11-16T10:46:14.534Z,85.98
2022-11-16T10:49:11.428Z,86.46
2022-11-16T10:51:38.518Z,85.93
2022-11-16T10:54:18.116Z,85.59
2022-11-16T10:56:59.308Z,86.15
2022-11-16T10:59:39.441Z,86.26
2022-11-16T11:02:24.771Z,86.33
2022-11-16T11:05:22.725Z,86.44
2022-11-16T11:08:03.474Z,86.18
2022-11-16T11:10:34.833Z,86.22
2022-11-16T11:13:17.523Z,85.30
2022-11-16T11:15:45.133Z,85.16
2022-11-16T11:18:30.045Z,85.50
2022-11-16T11:21:16.867Z,84.54
2022-11-16T11:24:06.191Z,85.02
2022-11-16T11:26:51.626Z,84.79
2022-11-16T11:29:33.096Z,84.25
2022-11-16T11:32:20.769Z,83.91
2022-11-16T11:34:54.809Z,84.35
2022-11-16T11:37:38.450Z,84.14
2022-11-16T11:40:22.704Z,83.82
2022-11-16T11:43:05.734Z,83.73
2022-11-16T11:45:47.942Z,82.85
2022-11-16T11:48:48.261Z,83.10
2022-11-16T11:51:25.985Z,83.06
2022-11-16T11:53:58.214Z,83.54
2022-11-16T11:56:28.598Z,83.19
2022-11-16T11:58:56.883Z,82.35
2022-11-16T12:01:48.207Z,83.14
2022-11-16T12:04:46.217Z,82.66
2022-11-16T12:07:37.659Z,82.35
2022-11-16T12:10:42.318Z,82.77
2022-11-16T12:13:30.425Z,83.26
2022-11-16T12:16:18.771Z,82.21
2022-11-16T12:19:45.114Z,81.75
2022-11-16T12:22:58.433Z,80.03
2022-11-16T12:26:05.422Z,79.01
2022-11-16T12:28:50.912Z,78.93
2022-11-16T12:32:22.801Z,79.88
2022-11-16T12:35:26.643Z,79.57
2022-11-16T12:38:46.591Z,79.57
2022-11-16T12:41:28.953Z,79.52
2022-11-16T12:44:16.383Z,80.70
2022-11-16T12:47:33.247Z,81.03
2022-11-16T12:50:29.534Z,81.26
2022-11-16T12:53:21.076Z,79.13
2022-11-16T12:56:19.578Z,79.46
2022-11-16T12:59:28.200Z,78.83
2022-11-16T13:02:17.712Z,79.38
2022-11-16T13:04:55.055Z,79.11
2022-11-16T13:07:44.538Z,78.87
2022-11-16T13:10:28.514Z,76.46
2022-11-16T13:16:01.730Z,74.90
2022-11-16T13:18:32.958Z,75.03
2022-11-16T13:21:22.077Z,75.26
2022-11-16T13:24:17.104Z,75.49
2022-11-16T13:27:21.528Z,74.64
2022-11-16T13:30:09.477Z,74.85
2022-11-16T13:33:09.979Z,75.33
2022-11-16T13:35:38.863Z,75.23
2022-11-16T13:38:15.198Z,74.22
2022-11-16T13:40:43.500Z,74.35
2022-11-16T13:43:10.821Z,74.75
2022-11-16T13:45:57.016Z,74.48
2022-11-16T13:48:35.251Z,75.00
2022-11-16T13:51:18.501Z,75.25
2022-11-16T13:56:51.719Z,74.47
2022-11-16T13:59:27.965Z,75.62
2022-11-16T14:02:24.583Z,75.83
2022-11-16T14:05:03.106Z,76.30
2022-11-16T14:07:52.172Z,76.50
2022-11-16T14:10:34.504Z,76.76
2022-11-16T14:13:04.373Z,76.61
2022-11-16T14:15:37.727Z,76.52
2022-11-16T14:18:07.496Z,76.59
2022-11-16T14:20:38.299Z,76.57
2022-11-16T14:23:15.396Z,76.16
2022-11-16T14:26:17.316Z,76.41
2022-11-16T14:29:09.730Z,76.60
2022-11-16T14:32:03.841Z,76.63
2022-11-16T14:34:42.187Z,76.95
2022-11-16T14:37:30.379Z,77.22
2022-11-16T14:40:16.751Z,77.34
2022-11-16T14:43:15.453Z,77.57
2022-11-16T14:45:39.763Z,77.91
2022-11-16T14:48:19.750Z,77.94
2022-11-16T14:51:02.257Z,78.04
2022-11-16T14:53:31.713Z,78.40
2022-11-16T14:56:15.044Z,78.15
2022-11-16T14:59:00.945Z,78.30
2022-11-16T15:01:33.761Z,78.54
2022-11-16T15:04:06.249Z,79.11
2022-11-16T15:06:44.915Z,79.13
2022-11-16T15:09:36.153Z,79.29
2022-11-16T15:12:30.113Z,79.61
2022-11-16T15:15:04.439Z,80.07
2022-11-16T15:17:33.579Z,80.42
2022-11-16T15:20:13.258Z,80.84
2022-11-16T15:22:45.306Z,80.80
2022-11-16T15:25:34.208Z,81.21
2022-11-16T15:28:13.352Z,81.29
2022-11-16T15:30:41.072Z,81.75
2022-11-16T15:33:15.260Z,82.10
2022-11-16T15:35:42.347Z,82.45
2022-11-16T15:38:24.843Z,82.82
2022-11-16T15:40:56.145Z,83.15
2022-11-16T15:44:01.316Z,83.30
2022-11-16T15:46:35.265Z,83.76
2022-11-16T15:49:03.142Z,84.10
2022-11-16T15:51:31.236Z,84.21
2022-11-16T15:54:54.117Z,84.27
2022-11-16T15:57:23.934Z,84.74
2022-11-16T15:59:57.189Z,84.61
2022-11-16T16:02:30.351Z,84.84
2022-11-16T16:04:57.684Z,85.26
2022-11-16T16:07:40.897Z,85.40
2022-11-16T16:10:20.053Z,86.01
2022-11-16T16:12:59.707Z,86.02
2022-11-16T16:15:31.337Z,86.41
2022-11-16T16:17:58.955Z,86.36
2022-11-16T16:20:30.949Z,86.13
2022-11-16T16:23:12.635Z,86.03
2022-11-16T16:25:39.714Z,85.84
2022-11-16T16:28:06.901Z,85.29
2022-11-16T16:30:38.415Z,85.29
2022-11-16T16:33:15.619Z,85.00
2022-11-16T16:35:42.615Z,85.22
2022-11-16T16:38:13.730Z,84.90
2022-11-16T16:40:40.703Z,85.33
2022-11-16T16:43:10.097Z,85.27
2022-11-16T16:45:41.459Z,85.10
2022-11-16T16:48:09.670Z,84.41
2022-11-16T16:50:36.935Z,84.36
2022-11-16T16:53:05.584Z,84.43
2022-11-16T16:55:37.509Z,84.69
2022-11-16T16:58:05.867Z,84.58
2022-11-16T17:00:34.728Z,84.32
2022-11-16T17:03:01.849Z,84.37
2022-11-16T17:05:32.733Z,84.12
2022-11-16T17:08:01.465Z,84.15
2022-11-16T17:10:28.689Z,84.04
2022-11-16T17:12:58.576Z,84.31
2022-11-16T17:15:25.649Z,84.68
2022-11-16T17:17:52.935Z,84.69
2022-11-16T17:20:21.969Z,84.95
2022-11-16T17:22:49.305Z,85.10
2022-11-16T17:25:16.573Z,85.43
2022-11-16T17:27:43.628Z,85.71
2022-11-16T17:30:11.687Z,85.69
2022-11-16T17:32:38.729Z,85.74
2022-11-16T17:35:05.960Z,85.38
2022-11-16T17:37:33.982Z,85.45
2022-11-16T17:40:00.993Z,85.44
2022-11-16T17:42:28.047Z,85.61
2022-11-16T17:44:55.434Z,85.85
2022-11-16T17:47:22.582Z,85.77
2022-11-16T17:49:49.594Z,85.89
2022-11-16T17:52:16.811Z,86.22
2022-11-16T17:54:44.822Z,86.51
2022-11-16T17:57:11.901Z,86.67
2022-11-16T17:59:39.977Z,87.04
2022-11-16T18:02:12.569Z,87.20
2022-11-16T18:04:39.659Z,87.28
2022-11-16T18:07:06.845Z,87.62
2022-11-16T18:09:36.962Z,87.70
2022-11-16T18:12:04.172Z,87.77
2022-11-16T18:14:31.156Z,87.95
2022-11-16T18:16:58.257Z,88.24
2022-11-16T18:19:25.337Z,88.32
2022-11-16T18:21:52.440Z,88.52
2022-11-16T18:24:19.616Z,88.72
2022-11-16T18:26:46.724Z,89.07
2022-11-16T18:29:15.900Z,89.16
2022-11-16T18:31:43.153Z,89.22
2022-11-16T18:34:15.632Z,89.53
2022-11-16T18:36:42.726Z,89.54
2022-11-16T18:39:13.029Z,89.66
2022-11-16T18:41:51.553Z,89.77
2022-11-16T18:44:23.074Z,89.91
2022-11-16T18:46:50.125Z,89.68
2022-11-16T18:49:17.176Z,89.82
2022-11-16T18:51:44.274Z,89.81
2022-11-16T18:54:11.220Z,89.90
2022-11-16T18:56:38.566Z,89.64
2022-11-16T18:59:05.616Z,89.81
2022-11-16T19:01:32.710Z,89.80
2022-11-16T19:04:00.088Z,90.23
2022-11-16T19:06:27.286Z,90.26
2022-11-16T19:08:59.278Z,90.18
2022-11-16T19:11:28.419Z,90.14
2022-11-16T19:14:03.724Z,89.84
2022-11-16T19:16:31.775Z,89.95
2022-11-16T19:18:59.313Z,89.92
2022-11-16T19:21:27.182Z,89.55
2022-11-16T19:23:56.560Z,89.19
2022-11-16T19:26:27.300Z,89.04
2022-11-16T19:28:54.526Z,88.52
2022-11-16T19:31:29.312Z,88.77
2022-11-16T19:34:02.754Z,89.01
2022-11-16T19:36:32.041Z,88.90
2022-11-16T19:38:59.582Z,88.78
2022-11-16T19:41:28.399Z,88.70
2022-11-16T19:44:00.144Z,88.63
2022-11-16T19:46:33.759Z,88.18
2022-11-16T19:49:01.417Z,88.16
2022-11-16T19:51:33.426Z,88.00
2022-11-16T19:54:02.451Z,87.98
2022-11-16T19:56:29.800Z,88.04
2022-11-16T19:58:59.006Z,88.17
2022-11-16T20:01:29.238Z,88.11
2022-11-16T20:04:00.606Z,88.17
2022-11-16T20:06:31.333Z,88.25
2022-11-16T20:09:08.432Z,88.19
2022-11-16T20:11:38.522Z,88.51
2022-11-16T20:14:08.991Z,88.41
2022-11-16T20:16:40.466Z,88.66
2022-11-16T20:19:10.624Z,88.69
2022-11-16T20:21:41.519Z,88.74
2022-11-16T20:24:13.581Z,88.74
2022-11-16T20:26:45.202Z,88.69
2022-11-16T20:29:14.269Z,88.72
2022-11-16T20:31:42.582Z,88.69
2022-11-16T20:34:16.008Z,88.64
2022-11-16T20:36:46.772Z,88.72
2022-11-16T20:39:16.863Z,88.30
2022-11-16T20:41:47.614Z,88.36
2022-11-16T20:44:19.515Z,88.54
2022-11-16T20:46:46.940Z,88.49
2022-11-16T20:49:14.074Z,88.70
2022-11-16T20:51:41.295Z,88.65
2022-11-16T20:54:08.558Z,88.40
2022-11-16T20:56:35.703Z,88.52
2022-11-16T20:59:02.772Z,88.50
2022-11-16T21:01:32.989Z,88.44
2022-11-16T21:04:04.858Z,88.56
2022-11-16T21:06:33.493Z,88.69
2022-11-16T21:09:01.392Z,88.87
2022-11-16T21:11:51.466Z,88.92
2022-11-16T21:14:20.337Z,89.05
2022-11-16T21:16:47.520Z,88.80
2022-11-16T21:19:15.809Z,88.89
2022-11-16T21:21:48.634Z,89.02
2022-11-16T21:24:15.634Z,89.03
2022-11-16T21:26:42.726Z,89.06
2022-11-16T21:29:11.754Z,88.69
2022-11-16T21:31:38.950Z,88.86
2022-11-16T21:34:07.284Z,88.82
2022-11-16T21:36:36.076Z,88.92
2022-11-16T21:39:03.376Z,88.65
2022-11-16T21:41:31.870Z,88.99
2022-11-16T21:43:58.861Z,88.92
2022-11-16T21:46:27.508Z,88.63
2022-11-16T21:48:56.444Z,88.81
2022-11-16T21:51:27.187Z,88.70
2022-11-16T21:53:55.413Z,88.72
2022-11-16T21:56:25.272Z,88.71
2022-11-16T21:58:54.208Z,88.72
2022-11-16T22:01:23.596Z,88.75
2022-11-16T22:04:11.006Z,88.68
2022-11-16T22:06:56.662Z,88.71
2022-11-16T22:09:23.754Z,88.66
2022-11-16T22:11:52.785Z,88.72
2022-11-16T22:14:19.723Z,88.72
2022-11-16T22:16:46.713Z,88.88
2022-11-16T22:19:13.577Z,88.87
2022-11-16T22:21:40.582Z,88.70
2022-11-16T22:24:08.034Z,88.89
2022-11-16T22:26:35.372Z,88.77
2022-11-16T22:29:02.409Z,88.87
2022-11-16T22:31:29.342Z,89.20
2022-11-16T22:33:56.355Z,89.20
2022-11-16T22:36:23.339Z,89.58
2022-11-16T22:38:50.586Z,89.92
2022-11-16T22:41:17.530Z,90.37
2022-11-16T22:43:44.523Z,90.89
2022-11-16T22:46:11.585Z,91.52
2022-11-16T22:48:40.023Z,92.07
2022-11-16T22:51:19.369Z,92.46
2022-11-16T22:53:46.812Z,93.23
2022-11-16T22:56:14.089Z,93.52
2022-11-16T22:58:41.258Z,94.02
2022-11-16T23:01:09.420Z,94.13
2022-11-16T23:03:38.447Z,94.32
2022-11-16T23:06:07.731Z,94.71
2022-11-16T23:08:36.774Z,94.92
2022-11-16T23:11:34.233Z,95.31
2022-11-16T23:14:20.516Z,95.61
2022-11-16T23:16:48.359Z,95.86
2022-11-16T23:19:37.276Z,96.20
2022-11-16T23:22:24.137Z,96.32
2022-11-16T23:25:09.888Z,96.72
2022-11-16T23:28:05.554Z,96.95
2022-11-16T23:30:35.250Z,97.33
2022-11-16T23:33:03.258Z,97.18
2022-11-16T23:35:30.173Z,97.58
2022-11-16T23:38:06.274Z,97.79
2022-11-16T23:40:39.553Z,97.91
2022-11-16T23:43:28.707Z,98.00
2022-11-16T23:46:01.487Z,98.23
2022-11-16T23:48:28.476Z,98.41
2022-11-16T23:50:55.474Z,98.53
2022-11-16T23:53:22.406Z,98.75
2022-11-16T23:55:49.369Z,98.68
2022-11-16T23:58:16.680Z,98.92
